Time;durP1;ratioP1;P1;durP2;ratioP2;P2;SDS_P1;SDS_P2;PMS_P1;PMS_P2;Temp;Humidity;BMP_temperature;BMP_pressure;BME280_temperature;BME280_humidity;BME280_pressure;Samples;Min_cycle;Max_cycle;Signal;HPM_P1;HPM_P2
2021/03/14 00:01:06;;;;;;;0.00;0.00;;;15.60;60.90;;;;;;4198628;28;20083;-54
2021/03/14 00:03:29;;;;;;;0.00;0.00;;;15.60;61.00;;;;;;4198564;28;20072;-52
2021/03/14 00:05:52;;;;;;;0.00;0.00;;;15.50;61.20;;;;;;4198220;28;20726;-55
2021/03/14 00:08:14;;;;;;;0.00;0.00;;;15.50;61.30;;;;;;4198892;28;20053;-55
2021/03/14 00:10:36;;;;;;;0.00;0.00;;;15.40;61.40;;;;;;4198604;28;20080;-54
2021/03/14 00:12:56;;;;;;;0.00;0.00;;;15.40;61.60;;;;;;4198781;28;20056;-56
2021/03/14 00:15:19;;;;;;;0.00;0.00;;;15.40;61.50;;;;;;4198257;28;20044;-55
2021/03/14 00:17:48;;;;;;;0.00;0.00;;;15.40;61.70;;;;;;4198463;28;20056;-56
2021/03/14 00:20:10;;;;;;;;;;;15.40;61.80;;;;;;4198958;28;20056;-55
2021/03/14 00:22:31;;;;;;;;;;;15.30;61.90;;;;;;4198829;28;19924;-53
2021/03/14 00:24:53;;;;;;;0.00;0.00;;;15.20;62.00;;;;;;4198053;28;19924;-56
2021/03/14 00:27:14;;;;;;;0.00;0.00;;;15.40;62.20;;;;;;4198348;28;20052;-52
2021/03/14 00:29:35;;;;;;;0.00;0.00;;;15.60;61.30;;;;;;4198459;28;20053;-54
2021/03/14 00:31:55;;;;;;;0.00;0.00;;;15.80;60.60;;;;;;4197961;28;20060;-53
2021/03/14 00:34:16;;;;;;;0.20;0.20;;;15.90;59.90;;;;;;4198138;28;20844;-54
2021/03/14 00:36:37;;;;;;;0.00;0.00;;;16.00;59.80;;;;;;4197988;28;20131;-55
2021/03/14 00:38:57;;;;;;;0.00;0.00;;;16.00;59.80;;;;;;4198176;28;20063;-54
2021/03/14 00:41:20;;;;;;;0.00;0.00;;;16.10;59.60;;;;;;4198199;28;20060;-56
2021/03/14 00:43:42;;;;;;;0.00;0.00;;;16.10;59.60;;;;;;4198108;28;20056;-51
2021/03/14 00:46:04;;;;;;;0.00;0.00;;;16.10;59.50;;;;;;4197858;28;20453;-51
2021/03/14 00:48:32;;;;;;;0.00;0.00;;;16.10;59.60;;;;;;4197023;28;20044;-52
2021/03/14 00:50:53;;;;;;;;;;;16.00;59.70;;;;;;4198159;28;20513;-54
2021/03/14 00:53:22;;;;;;;0.57;0.57;;;15.90;60.00;;;;;;4197791;28;19920;-56
2021/03/14 00:55:46;;;;;;;0.00;0.00;;;15.80;60.40;;;;;;4196666;28;20674;-57
2021/03/14 00:58:08;;;;;;;0.00;0.00;;;15.80;60.60;;;;;;4197946;28;20053;-55
2021/03/14 01:00:30;;;;;;;0.00;0.00;;;16.00;60.30;;;;;;4193074;28;20053;-54
2021/03/14 01:02:51;;;;;;;0.00;0.00;;;16.20;59.50;;;;;;4181250;28;20132;-52
2021/03/14 01:05:15;;;;;;;0.00;0.00;;;16.40;58.90;;;;;;4192965;28;20126;-54
2021/03/14 01:07:36;;;;;;;;;;;16.50;58.80;;;;;;4198403;28;20588;-55
2021/03/14 01:09:57;;;;;;;0.00;0.00;;;16.40;58.80;;;;;;4196400;28;20004;-54
2021/03/14 01:12:18;;;;;;;0.00;0.00;;;16.50;58.70;;;;;;4196509;28;20048;-56
2021/03/14 01:14:59;;;;;;;0.00;0.00;;;16.50;58.60;;;;;;4192924;28;20045;-54
2021/03/14 01:17:28;;;;;;;0.00;0.00;;;16.50;58.70;;;;;;4181169;28;20057;-54
2021/03/14 01:19:49;;;;;;;0.00;0.00;;;16.50;58.80;;;;;;4180959;28;20056;-55
2021/03/14 01:22:10;;;;;;;0.00;0.00;;;16.40;58.80;;;;;;4180962;28;20451;-54
2021/03/14 01:24:31;;;;;;;0.00;0.00;;;16.50;58.90;;;;;;4186367;28;20048;-56
2021/03/14 01:26:52;;;;;;;0.05;0.05;;;16.50;58.70;;;;;;4197466;28;20049;-55
2021/03/14 01:29:13;;;;;;;0.10;0.10;;;16.50;58.60;;;;;;4197296;28;20098;-55
2021/03/14 01:31:34;;;;;;;0.00;0.00;;;16.50;58.70;;;;;;4180507;28;20080;-52
2021/03/14 01:33:56;;;;;;;11.77;1.95;;;16.40;58.90;;;;;;4180650;28;20146;-55
2021/03/14 01:36:17;;;;;;;0.00;0.00;;;16.40;59.00;;;;;;4180730;28;20063;-55
2021/03/14 01:38:38;;;;;;;2.60;1.40;;;16.40;59.00;;;;;;4179596;28;20053;-55
2021/03/14 01:40:59;;;;;;;0.00;0.00;;;16.40;59.10;;;;;;4180717;28;20055;-54
2021/03/14 01:43:20;;;;;;;1.30;1.30;;;16.30;59.30;;;;;;4180651;28;20549;-55
2021/03/14 01:45:41;;;;;;;0.00;0.00;;;16.30;59.40;;;;;;4191999;28;20595;-53
2021/03/14 01:48:06;;;;;;;0.00;0.00;;;16.30;59.40;;;;;;4197410;28;20059;-56
2021/03/14 01:50:27;;;;;;;0.00;0.00;;;16.30;59.40;;;;;;4196907;28;20056;-56
2021/03/14 01:52:50;;;;;;;0.10;0.10;;;16.30;59.60;;;;;;4197108;28;20139;-55
2021/03/14 01:55:12;;;;;;;0.75;0.75;;;16.20;59.70;;;;;;4196793;28;20049;-55
2021/03/14 01:57:34;;;;;;;0.00;0.00;;;16.10;59.80;;;;;;4197078;28;20730;-52
2021/03/14 01:59:55;;;;;;;0.00;0.00;;;16.20;59.90;;;;;;4196787;28;20053;-55
2021/03/14 02:02:16;;;;;;;0.00;0.00;;;16.50;59.40;;;;;;4196873;28;20049;-56
2021/03/14 02:04:38;;;;;;;6.53;1.65;;;16.80;59.20;;;;;;4196553;28;20057;-53
2021/03/14 02:06:59;;;;;;;0.00;0.00;;;17.00;57.90;;;;;;4196716;28;20048;-57
2021/03/14 02:09:20;;;;;;;0.00;0.00;;;17.10;58.40;;;;;;4196627;28;20418;-56
2021/03/14 02:11:44;;;;;;;0.10;0.10;;;17.10;57.50;;;;;;4196121;28;20151;-56
2021/03/14 02:14:08;;;;;;;0.00;0.00;;;17.00;57.60;;;;;;4196825;28;20056;-56
2021/03/14 02:16:34;;;;;;;0.10;0.10;;;17.00;57.80;;;;;;4180204;28;20274;-54
2021/03/14 02:18:59;;;;;;;0.00;0.00;;;16.90;58.10;;;;;;4180202;28;20574;-56
2021/03/14 02:21:22;;;;;;;1.85;0.95;;;16.80;58.50;;;;;;4179005;28;20059;-56
2021/03/14 02:23:52;;;;;;;0.00;0.00;;;16.60;58.70;;;;;;4180100;28;20053;-56
2021/03/14 02:26:18;;;;;;;0.17;0.17;;;16.60;59.00;;;;;;4195228;28;20055;-57
2021/03/14 02:28:42;;;;;;;0.00;0.00;;;16.50;59.20;;;;;;4196606;28;20628;-56
2021/03/14 02:31:04;;;;;;;0.00;0.00;;;16.50;59.30;;;;;;4195197;28;20133;-53
2021/03/14 02:33:28;;;;;;;0.00;0.00;;;16.60;59.20;;;;;;4196521;28;20060;-54
2021/03/14 02:35:52;;;;;;;0.00;0.00;;;16.70;58.80;;;;;;4196152;28;20056;-56
2021/03/14 02:38:14;;;;;;;0.00;0.00;;;16.80;58.50;;;;;;4196543;28;20056;-55
2021/03/14 02:40:36;;;;;;;0.03;0.03;;;16.80;58.50;;;;;;4196281;28;20054;-56
2021/03/14 02:42:58;;;;;;;0.00;0.00;;;16.70;58.60;;;;;;4196347;28;20495;-56
2021/03/14 02:45:20;;;;;;;0.00;0.00;;;16.70;58.70;;;;;;4195954;28;20056;-56
2021/03/14 02:47:41;;;;;;;0.00;0.00;;;16.60;58.90;;;;;;4195969;28;20055;-57
2021/03/14 02:50:07;;;;;;;0.00;0.00;;;16.60;59.10;;;;;;4195935;28;20060;-57
2021/03/14 02:52:28;;;;;;;0.10;0.10;;;16.80;58.70;;;;;;4196209;28;20044;-54
2021/03/14 02:54:54;;;;;;;0.00;0.00;;;17.00;58.10;;;;;;4194777;28;20513;-55
2021/03/14 02:57:18;;;;;;;0.00;0.00;;;17.10;57.80;;;;;;4195912;28;20060;-56
2021/03/14 02:59:41;;;;;;;0.00;0.00;;;17.10;57.80;;;;;;4184189;28;20058;-56
2021/03/14 03:02:03;;;;;;;0.00;0.00;;;17.10;57.90;;;;;;4195792;28;20048;-56
2021/03/14 03:04:26;;;;;;;1.27;1.25;;;17.00;58.00;;;;;;4195727;28;20120;-55
2021/03/14 03:06:49;;;;;;;0.22;0.22;;;16.90;58.30;;;;;;4192158;28;20155;-55
2021/03/14 03:09:12;;;;;;;0.00;0.00;;;16.80;58.50;;;;;;4193037;28;20067;-57
2021/03/14 03:11:33;;;;;;;0.00;0.00;;;16.60;58.80;;;;;;4195909;28;20048;-56
2021/03/14 03:13:54;;;;;;;0.08;0.08;;;16.60;59.10;;;;;;4195886;28;20079;-55
2021/03/14 03:16:18;;;;;;;0.30;0.30;;;16.50;59.40;;;;;;4179386;28;20045;-56
2021/03/14 03:18:41;;;;;;;0.00;0.00;;;16.50;59.40;;;;;;4195178;28;20102;-56
2021/03/14 03:21:02;;;;;;;0.00;0.00;;;16.40;59.40;;;;;;4195760;28;20052;-54
2021/03/14 03:23:24;;;;;;;0.00;0.00;;;16.40;59.70;;;;;;4195095;28;20082;-55
2021/03/14 03:25:45;;;;;;;0.00;0.00;;;16.30;59.80;;;;;;4179273;28;20057;-53
2021/03/14 03:28:06;;;;;;;0.00;0.00;;;16.30;60.10;;;;;;4180037;28;20049;-57
2021/03/14 03:30:29;;;;;;;0.05;0.05;;;16.30;60.00;;;;;;4195610;28;20676;-55
2021/03/14 03:32:49;;;;;;;0.00;0.00;;;16.40;59.90;;;;;;4195565;28;20059;-54
2021/03/14 03:35:12;;;;;;;1.02;1.02;;;16.40;59.90;;;;;;4195433;28;20415;-55
2021/03/14 03:37:33;;;;;;;22.48;1.00;;;16.40;60.00;;;;;;4195599;28;20060;-54
2021/03/14 03:39:54;;;;;;;0.57;0.57;;;16.30;60.10;;;;;;4195668;28;20080;-55
2021/03/14 03:42:19;;;;;;;0.00;0.00;;;16.30;60.30;;;;;;4195343;28;20048;-51
2021/03/14 03:44:41;;;;;;;0.00;0.00;;;16.50;59.90;;;;;;4195439;28;20048;-54
2021/03/14 03:47:05;;;;;;;0.00;0.00;;;16.60;59.40;;;;;;4195549;28;20061;-56
2021/03/14 03:49:29;;;;;;;0.10;0.10;;;16.60;59.30;;;;;;4195555;28;20152;-51
2021/03/14 03:51:51;;;;;;;0.00;0.00;;;16.60;59.20;;;;;;4195313;28;20498;-56
2021/03/14 03:54:15;;;;;;;0.00;0.00;;;16.60;59.30;;;;;;4195537;28;20045;-53
2021/03/14 03:56:38;;;;;;;0.05;0.05;;;16.50;59.40;;;;;;4195136;28;20071;-53
2021/03/14 03:59:01;;;;;;;0.10;0.10;;;16.40;59.60;;;;;;4195199;28;20055;-56
2021/03/14 04:01:22;;;;;;;0.00;0.00;;;16.40;59.80;;;;;;4195561;28;20086;-54
2021/03/14 04:03:46;;;;;;;0.00;0.00;;;16.30;60.00;;;;;;4195500;28;20102;-57
2021/03/14 04:06:08;;;;;;;0.00;0.00;;;16.40;59.90;;;;;;4195395;28;20068;-54
2021/03/14 04:08:31;;;;;;;0.00;0.00;;;16.40;59.90;;;;;;4195428;28;20051;-52
2021/03/14 04:10:53;;;;;;;0.00;0.00;;;16.30;59.90;;;;;;4192567;28;20495;-55
2021/03/14 04:13:16;;;;;;;0.28;0.28;;;16.30;60.00;;;;;;4195434;28;20488;-55
2021/03/14 04:15:38;;;;;;;0.00;0.00;;;16.40;60.10;;;;;;4195080;28;20678;-53
2021/03/14 04:17:59;;;;;;;0.00;0.00;;;16.40;60.10;;;;;;4178716;28;20749;-56
2021/03/14 04:20:22;;;;;;;3.05;1.63;;;16.30;60.20;;;;;;4190832;28;20045;-55
2021/03/14 04:22:46;;;;;;;0.10;0.10;;;16.20;60.50;;;;;;4195243;28;20499;-53
2021/03/14 04:25:10;;;;;;;0.00;0.00;;;16.20;60.70;;;;;;4195363;28;20060;-54
2021/03/14 04:27:31;;;;;;;0.45;0.45;;;16.10;60.90;;;;;;4195178;28;20461;-54
2021/03/14 04:29:53;;;;;;;0.00;0.00;;;16.10;61.20;;;;;;4195031;28;20063;-55
2021/03/14 04:32:15;;;;;;;0.63;0.63;;;16.20;60.70;;;;;;4195081;28;20091;-55
2021/03/14 04:34:37;;;;;;;0.00;0.00;;;16.50;60.00;;;;;;4197135;28;20063;-57
2021/03/14 04:36:59;;;;;;;0.00;0.00;;;16.70;59.20;;;;;;4197976;28;20059;-55
2021/03/14 04:39:20;;;;;;;2.35;1.55;;;16.90;58.80;;;;;;4198002;28;20441;-55
2021/03/14 04:41:45;;;;;;;0.00;0.00;;;17.00;58.50;;;;;;4198132;28;20516;-56
2021/03/14 04:44:08;;;;;;;0.32;0.32;;;17.00;58.40;;;;;;4197821;28;20083;-56
2021/03/14 04:46:29;;;;;;;0.00;0.00;;;17.20;58.20;;;;;;4181510;28;20080;-55
2021/03/14 04:48:53;;;;;;;0.30;0.30;;;17.20;58.00;;;;;;4185794;28;20115;-54
2021/03/14 04:51:26;;;;;;;0.38;0.38;;;17.20;58.10;;;;;;4197798;28;20079;-58
2021/03/14 04:53:47;;;;;;;0.00;0.00;;;17.10;58.20;;;;;;4197998;28;20136;-59
2021/03/14 04:56:08;;;;;;;;;;;17.00;58.40;;;;;;4197166;28;20407;-56
2021/03/14 04:58:32;;;;;;;0.00;0.00;;;16.90;58.70;;;;;;4197693;28;19931;-56
2021/03/14 05:00:53;;;;;;;0.22;0.22;;;17.00;58.70;;;;;;4197964;28;20494;-56
2021/03/14 05:03:16;;;;;;;0.00;0.00;;;17.10;58.40;;;;;;4197668;28;20052;-57
2021/03/14 05:05:39;;;;;;;0.00;0.00;;;17.20;58.00;;;;;;4197821;28;20076;-58
2021/03/14 05:08:01;;;;;;;0.20;0.20;;;17.30;57.90;;;;;;4197615;28;20053;-53
2021/03/14 05:10:23;;;;;;;0.00;0.00;;;17.20;58.00;;;;;;4193193;28;20056;-57
2021/03/14 05:12:45;;;;;;;0.00;0.00;;;17.20;58.20;;;;;;4197807;28;20052;-56
2021/03/14 05:15:09;;;;;;;0.22;0.22;;;17.10;58.40;;;;;;4197438;28;20083;-54
2021/03/14 05:17:32;;;;;;;0.10;0.10;;;17.00;58.50;;;;;;4184594;28;20045;-55
2021/03/14 05:19:54;;;;;;;0.00;0.00;;;17.10;58.60;;;;;;4197631;28;20171;-54
2021/03/14 05:22:18;;;;;;;0.00;0.00;;;17.20;58.30;;;;;;4197568;28;20423;-56
2021/03/14 05:24:40;;;;;;;0.00;0.00;;;17.20;58.20;;;;;;4197350;28;20538;-55
2021/03/14 05:27:03;;;;;;;0.03;0.03;;;17.20;58.20;;;;;;4197521;28;20094;-55
2021/03/14 05:29:24;;;;;;;0.00;0.00;;;17.10;58.30;;;;;;4197371;28;20048;-54
2021/03/14 05:31:46;;;;;;;;;;;17.00;58.60;;;;;;4197683;28;20106;-57
2021/03/14 05:34:13;;;;;;;1.02;1.00;;;17.00;58.70;;;;;;4197220;28;20385;-54
2021/03/14 05:36:35;;;;;;;0.00;0.00;;;17.10;58.60;;;;;;4197157;28;20052;-56
2021/03/14 05:38:58;;;;;;;1.17;1.17;;;17.20;58.50;;;;;;4197238;28;20063;-54
2021/03/14 05:41:20;;;;;;;0.00;0.00;;;17.10;58.50;;;;;;4196181;28;20052;-55
2021/03/14 05:43:43;;;;;;;0.00;0.00;;;17.00;58.70;;;;;;4196970;28;20135;-54
2021/03/14 05:46:03;;;;;;;0.00;0.00;;;17.00;58.90;;;;;;4196420;28;20415;-56
2021/03/14 05:48:25;;;;;;;0.00;0.00;;;16.90;59.00;;;;;;4197252;28;20128;-53
2021/03/14 05:50:46;;;;;;;0.00;0.00;;;16.90;59.20;;;;;;4196173;28;20093;-56
2021/03/14 05:53:07;;;;;;;0.00;0.00;;;16.80;59.40;;;;;;4197075;28;20059;-56
2021/03/14 05:55:28;;;;;;;0.03;0.03;;;16.80;59.50;;;;;;4180530;28;20526;-55
2021/03/14 05:57:50;;;;;;;0.00;0.00;;;16.70;59.60;;;;;;4180714;28;20582;-55
2021/03/14 06:00:15;;;;;;;0.00;0.00;;;16.60;59.70;;;;;;4180431;28;20499;-55
2021/03/14 06:02:38;;;;;;;0.00;0.00;;;16.60;59.90;;;;;;4180428;28;20567;-53
2021/03/14 06:05:00;;;;;;;0.00;0.00;;;16.50;60.20;;;;;;4180259;28;20056;-56
2021/03/14 06:07:21;;;;;;;0.00;0.00;;;16.50;60.50;;;;;;4180312;28;20053;-57
2021/03/14 06:09:42;;;;;;;0.00;0.00;;;16.60;60.10;;;;;;4180150;28;20056;-54
2021/03/14 06:12:04;;;;;;;0.00;0.00;;;16.80;59.80;;;;;;4180320;28;20053;-52
2021/03/14 06:14:28;;;;;;;0.30;0.30;;;16.90;59.50;;;;;;4192706;28;20119;-56
2021/03/14 06:16:49;;;;;;;0.00;0.00;;;17.10;58.80;;;;;;4196225;28;20566;-56
2021/03/14 06:19:10;;;;;;;5.18;0.68;;;17.40;58.10;;;;;;4196521;28;20060;-56
2021/03/14 06:21:32;;;;;;;0.00;0.00;;;17.60;57.60;;;;;;4196339;28;20064;-53
2021/03/14 06:23:59;;;;;;;0.57;0.57;;;17.60;57.40;;;;;;4196615;28;20418;-55
2021/03/14 06:26:19;;;;;;;0.00;0.00;;;17.60;57.70;;;;;;4196505;28;20087;-57
2021/03/14 06:28:40;;;;;;;0.10;0.10;;;17.50;58.20;;;;;;4196331;28;20483;-55
2021/03/14 06:31:16;;;;;;;0.10;0.10;;;17.40;58.40;;;;;;4196439;28;20155;-56
2021/03/14 06:33:37;;;;;;;0.00;0.00;;;17.30;58.70;;;;;;4195636;28;20645;-57
2021/03/14 06:35:58;;;;;;;0.00;0.00;;;17.10;59.00;;;;;;4196541;28;20626;-57
2021/03/14 06:38:26;;;;;;;4.00;0.80;;;17.00;59.90;;;;;;4196233;28;20139;-58
2021/03/14 06:40:47;;;;;;;0.00;0.00;;;16.90;59.60;;;;;;4196292;28;20059;-57
2021/03/14 06:43:12;;;;;;;0.10;0.10;;;16.90;59.80;;;;;;4196116;28;20051;-57
2021/03/14 06:45:38;;;;;;;0.00;0.00;;;17.00;59.40;;;;;;4196310;28;20448;-56
2021/03/14 06:48:00;;;;;;;0.05;0.05;;;17.20;59.00;;;;;;4195250;28;20143;-57
2021/03/14 06:50:35;;;;;;;;;;;17.20;58.80;;;;;;4196349;28;20055;-56
2021/03/14 06:53:12;;;;;;;1.38;0.90;;;17.20;59.60;;;;;;4195058;28;19947;-57
2021/03/14 06:55:35;;;;;;;0.00;0.00;;;17.10;59.00;;;;;;4196150;28;20138;-54
2021/03/14 06:57:56;;;;;;;0.08;0.08;;;17.10;59.20;;;;;;4195738;28;20053;-56
2021/03/14 07:00:20;;;;;;;0.00;0.00;;;17.10;59.20;;;;;;4179393;28;20084;-56
2021/03/14 07:02:41;;;;;;;0.00;0.00;;;17.10;59.20;;;;;;4179550;28;20102;-56
2021/03/14 07:05:04;;;;;;;0.00;0.00;;;17.10;59.20;;;;;;4179520;28;20064;-55
2021/03/14 07:07:28;;;;;;;0.00;0.00;;;17.10;59.20;;;;;;4188648;28;20060;-57
2021/03/14 07:09:54;;;;;;;0.00;0.00;;;17.10;59.30;;;;;;4195861;28;20056;-57
2021/03/14 07:12:18;;;;;;;0.73;0.70;;;17.00;59.50;;;;;;4195803;28;20052;-57
2021/03/14 07:14:39;;;;;;;0.00;0.00;;;16.90;59.70;;;;;;4195949;28;20052;-58
2021/03/14 07:17:01;;;;;;;0.00;0.00;;;17.00;59.60;;;;;;4195867;28;20105;-57
2021/03/14 07:19:23;;;;;;;0.32;0.32;;;17.00;59.50;;;;;;4195613;28;20124;-58
2021/03/14 07:21:45;;;;;;;0.00;0.00;;;17.00;59.50;;;;;;4195767;28;20052;-58
2021/03/14 07:24:11;;;;;;;0.60;0.60;;;17.00;59.60;;;;;;4195731;28;20480;-59
2021/03/14 07:26:43;;;;;;;0.75;0.75;;;16.90;59.70;;;;;;4195595;28;20075;-58
2021/03/14 07:29:05;;;;;;;0.00;0.00;;;16.80;59.90;;;;;;4195830;28;20052;-58
2021/03/14 07:31:26;;;;;;;1.55;1.10;;;16.70;60.10;;;;;;4195274;28;20109;-58
2021/03/14 07:33:47;;;;;;;0.00;0.00;;;16.80;59.80;;;;;;4195599;28;20072;-60
2021/03/14 07:36:09;;;;;;;;;;;16.80;59.50;;;;;;4195692;28;20084;-58
2021/03/14 07:38:31;;;;;;;0.10;0.10;;;16.70;59.50;;;;;;4195710;28;19924;-58
2021/03/14 07:40:52;;;;;;;0.00;0.00;;;16.60;59.60;;;;;;4195044;28;20048;-57
2021/03/14 07:43:13;;;;;;;1.35;1.25;;;16.50;59.60;;;;;;4195292;28;20498;-57
2021/03/14 07:45:35;;;;;;;0.00;0.00;;;16.50;59.90;;;;;;4185390;28;20045;-58
2021/03/14 07:47:57;;;;;;;0.50;0.50;;;16.40;60.10;;;;;;4195548;28;20621;-57
2021/03/14 07:50:22;;;;;;;0.00;0.00;;;16.30;60.30;;;;;;4195470;28;20052;-56
2021/03/14 07:52:43;;;;;;;0.25;0.25;;;16.20;60.30;;;;;;4195560;28;20048;-56
2021/03/14 07:55:08;;;;;;;0.52;0.52;;;16.20;60.60;;;;;;4195358;28;20056;-57
2021/03/14 07:57:30;;;;;;;0.00;0.00;;;16.40;60.00;;;;;;4195197;28;20498;-58
2021/03/14 07:59:51;;;;;;;0.00;0.00;;;16.80;58.90;;;;;;4195237;28;20056;-57
2021/03/14 08:02:28;;;;;;;0.65;0.65;;;17.10;58.10;;;;;;4195502;28;20053;-58
2021/03/14 08:04:51;;;;;;;0.47;0.47;;;17.20;57.50;;;;;;4195300;28;20059;-57
2021/03/14 08:07:11;;;;;;;0.30;0.30;;;17.30;57.40;;;;;;4194881;28;20135;-58
2021/03/14 08:09:45;;;;;;;0.00;0.00;;;17.30;57.30;;;;;;4193227;28;20106;-58
2021/03/14 08:12:20;;;;;;;0.55;0.55;;;17.20;57.40;;;;;;4192814;28;20202;-57
2021/03/14 08:14:42;;;;;;;2.03;1.23;;;17.10;57.50;;;;;;4194108;28;20483;-57
2021/03/14 08:17:21;;;;;;;4.20;0.77;;;17.00;57.70;;;;;;4198453;28;20114;-55
2021/03/14 08:19:44;;;;;;;1.42;1.33;;;16.90;57.90;;;;;;4186394;28;20127;-56
2021/03/14 08:22:06;;;;;;;0.00;0.00;;;16.80;58.10;;;;;;4188659;28;20453;-57
2021/03/14 08:24:32;;;;;;;0.25;0.25;;;16.80;58.20;;;;;;4197491;28;20055;-54
2021/03/14 08:27:06;;;;;;;0.10;0.10;;;16.80;58.20;;;;;;4197304;28;20480;-58
2021/03/14 08:29:40;;;;;;;0.00;0.00;;;16.70;58.20;;;;;;4198427;28;20507;-56
2021/03/14 08:32:02;;;;;;;0.17;0.13;;;16.70;58.40;;;;;;4196890;28;20095;-56
2021/03/14 08:34:45;;;;;;;0.45;0.45;;;16.70;58.50;;;;;;4194449;28;20045;-58
2021/03/14 08:37:22;;;;;;;0.00;0.00;;;16.60;58.70;;;;;;4195863;28;20480;-56
2021/03/14 08:39:44;;;;;;;0.10;0.10;;;16.50;58.80;;;;;;4197962;28;20089;-56
2021/03/14 08:42:19;;;;;;;0.10;0.10;;;16.40;58.90;;;;;;4197095;28;20052;-58
2021/03/14 08:44:48;;;;;;;0.38;0.38;;;16.30;59.10;;;;;;4198008;28;20052;-54
2021/03/14 08:47:25;;;;;;;0.00;0.00;;;16.20;59.30;;;;;;4195656;28;20060;-57
2021/03/14 08:49:57;;;;;;;0.00;0.00;;;16.20;59.60;;;;;;4193372;28;20190;-57
2021/03/14 08:52:22;;;;;;;0.10;0.10;;;16.10;59.80;;;;;;4191835;28;20045;-57
2021/03/14 08:54:55;;;;;;;0.00;0.00;;;16.00;59.90;;;;;;4195836;28;20518;-55
2021/03/14 08:57:20;;;;;;;0.00;0.00;;;15.90;59.90;;;;;;4195716;28;20052;-58
2021/03/14 08:59:46;;;;;;;0.00;0.00;;;15.90;60.10;;;;;;4197311;28;20080;-56
2021/03/14 09:02:08;;;;;;;0.70;0.57;;;15.80;60.20;;;;;;4196491;28;20542;-59
2021/03/14 09:04:31;;;;;;;0.00;0.00;;;15.70;60.30;;;;;;4197494;28;20045;-58
2021/03/14 09:07:07;;;;;;;0.75;0.75;;;15.70;60.50;;;;;;4196660;28;20064;-58
2021/03/14 09:09:29;;;;;;;0.00;0.00;;;15.60;60.60;;;;;;4194656;28;20056;-58
2021/03/14 09:12:06;;;;;;;0.45;0.45;;;15.60;60.90;;;;;;4196146;28;20053;-59
2021/03/14 09:14:42;;;;;;;0.82;0.82;;;15.50;61.70;;;;;;4194939;28;20084;-58
2021/03/14 09:17:12;;;;;;;0.10;0.10;;;15.50;61.00;;;;;;4197539;28;20080;-58
2021/03/14 09:19:40;;;;;;;0.00;0.00;;;15.40;61.10;;;;;;4196518;28;20520;-57
2021/03/14 09:22:06;;;;;;;0.00;0.00;;;15.40;61.10;;;;;;4185641;28;20123;-57
2021/03/14 09:24:33;;;;;;;0.00;0.00;;;15.30;61.10;;;;;;4196320;28;20067;-58
2021/03/14 09:26:56;;;;;;;0.50;0.50;;;15.30;61.20;;;;;;4194870;28;20435;-60
2021/03/14 09:29:35;;;;;;;0.00;0.00;;;15.30;61.50;;;;;;4196455;28;20048;-58
2021/03/14 09:31:56;;;;;;;0.00;0.00;;;15.30;61.50;;;;;;4188023;28;20117;-58
2021/03/14 09:34:21;;;;;;;0.45;0.45;;;15.30;61.50;;;;;;4197345;28;20049;-56
2021/03/14 09:36:48;;;;;;;0.32;0.32;;;15.20;62.30;;;;;;4197449;28;20084;-54
2021/03/14 09:39:12;;;;;;;0.00;0.00;;;15.20;61.40;;;;;;4196124;28;20060;-58
2021/03/14 09:41:46;;;;;;;0.00;0.00;;;15.20;61.70;;;;;;4196315;28;20052;-57
2021/03/14 09:44:36;;;;;;;0.00;0.00;;;15.70;60.90;;;;;;4195135;28;20055;-57
2021/03/14 09:47:04;;;;;;;0.00;0.00;;;17.10;57.20;;;;;;4196046;28;20139;-57
2021/03/14 09:50:00;;;;;;;5.93;1.30;;;18.30;53.80;;;;;;4197266;28;20079;-56
2021/03/14 09:52:24;;;;;;;0.00;0.00;;;19.50;50.60;;;;;;4196203;28;20053;-60
2021/03/14 09:54:51;;;;;;;0.00;0.00;;;20.50;48.40;;;;;;4196598;28;20487;-57
2021/03/14 09:57:21;;;;;;;0.00;0.00;;;21.50;46.00;;;;;;4195977;28;20135;-59
2021/03/14 09:59:57;;;;;;;0.00;0.00;;;22.50;44.00;;;;;;4195838;28;20052;-58
2021/03/14 10:02:37;;;;;;;0.20;0.20;;;23.20;42.30;;;;;;4196924;28;20052;-58
2021/03/14 10:05:19;;;;;;;0.00;0.00;;;23.80;41.20;;;;;;4180029;28;20424;-59
2021/03/14 10:07:41;;;;;;;0.00;0.00;;;24.00;40.50;;;;;;4179257;28;20057;-59
2021/03/14 10:10:10;;;;;;;0.03;0.03;;;23.90;40.70;;;;;;4193927;28;20540;-59
2021/03/14 10:12:40;;;;;;;0.00;0.00;;;23.60;41.40;;;;;;4195797;28;20052;-59
2021/03/14 10:15:02;;;;;;;0.00;0.00;;;23.20;42.30;;;;;;4195647;28;20059;-58
2021/03/14 10:17:23;;;;;;;0.00;0.00;;;22.80;43.10;;;;;;4195685;28;20604;-59
2021/03/14 10:19:46;;;;;;;0.00;0.00;;;22.30;43.90;;;;;;4195562;28;20144;-59
2021/03/14 10:22:09;;;;;;;3.83;1.55;;;21.90;44.70;;;;;;4187986;28;20613;-58
2021/03/14 10:25:02;;;;;;;0.32;0.32;;;21.50;45.60;;;;;;4196560;28;20056;-59
2021/03/14 10:27:37;;;;;;;0.20;0.20;;;21.00;46.50;;;;;;4194893;28;20083;-58
2021/03/14 10:30:11;;;;;;;0.00;0.00;;;20.60;47.50;;;;;;4184501;28;20891;-61
2021/03/14 10:32:45;;;;;;;0.00;0.00;;;20.20;48.20;;;;;;4192560;28;20064;-60
2021/03/14 10:35:14;;;;;;;0.15;0.15;;;19.90;49.00;;;;;;4192186;28;20056;-59
2021/03/14 10:37:37;;;;;;;0.00;0.00;;;19.90;49.40;;;;;;4195470;28;20060;-59
2021/03/14 10:40:10;;;;;;;0.00;0.00;;;20.10;49.10;;;;;;4179923;28;20470;-59
2021/03/14 10:42:34;;;;;;;0.00;0.00;;;20.20;48.80;;;;;;4178777;28;20048;-59
2021/03/14 10:45:07;;;;;;;0.22;0.22;;;20.40;48.50;;;;;;4194741;28;20148;-58
2021/03/14 10:47:29;;;;;;;0.00;0.00;;;20.50;48.40;;;;;;4194386;28;20063;-59
2021/03/14 10:50:09;;;;;;;0.13;0.13;;;20.50;48.30;;;;;;4194692;28;20530;-59
2021/03/14 10:52:31;;;;;;;0.10;0.10;;;20.60;48.10;;;;;;4194897;28;20545;-59
2021/03/14 10:54:56;;;;;;;4.03;1.85;;;20.80;47.90;;;;;;4195063;28;20049;-56
2021/03/14 10:57:25;;;;;;;0.15;0.15;;;20.90;47.60;;;;;;4195033;28;20131;-59
2021/03/14 11:00:08;;;;;;;0.00;0.00;;;20.90;47.50;;;;;;4195383;28;20692;-58
2021/03/14 11:02:43;;;;;;;0.00;0.00;;;20.80;47.50;;;;;;4192472;28;20390;-59
2021/03/14 11:05:20;;;;;;;0.22;0.22;;;20.80;47.40;;;;;;4182108;28;20777;-57
2021/03/14 11:07:56;;;;;;;0.05;0.05;;;20.80;47.30;;;;;;4195998;28;20052;-59
2021/03/14 11:10:27;;;;;;;0.47;0.45;;;20.80;47.70;;;;;;4178384;28;20630;-59
2021/03/14 11:13:14;;;;;;;0.25;0.15;;;20.70;48.00;;;;;;4178296;28;20059;-59
2021/03/14 11:15:39;;;;;;;0.00;0.00;;;20.80;47.50;;;;;;4178398;28;20061;-59
2021/03/14 11:18:07;;;;;;;0.00;0.00;;;20.90;47.30;;;;;;4190313;28;20474;-59
2021/03/14 11:20:43;;;;;;;0.00;0.00;;;21.00;47.10;;;;;;4183047;28;20131;-58
2021/03/14 11:23:09;;;;;;;0.00;0.00;;;21.00;47.10;;;;;;4178224;28;20499;-59
2021/03/14 11:25:30;;;;;;;0.00;0.00;;;21.00;47.10;;;;;;4178055;28;20052;-59
2021/03/14 11:27:52;;;;;;;0.85;0.85;;;21.10;46.90;;;;;;4179063;28;20056;-59
2021/03/14 11:30:16;;;;;;;0.00;0.00;;;21.10;46.90;;;;;;4178029;28;20060;-59
2021/03/14 11:32:39;;;;;;;0.00;0.00;;;21.00;47.10;;;;;;4177873;28;20598;-59
2021/03/14 11:35:23;;;;;;;0.00;0.00;;;20.90;47.30;;;;;;4178896;28;20151;-59
2021/03/14 11:38:12;;;;;;;0.00;0.00;;;20.80;47.50;;;;;;4193100;28;20054;-59
2021/03/14 11:40:33;;;;;;;0.00;0.00;;;20.70;47.90;;;;;;4195563;28;20135;-59
2021/03/14 11:43:29;;;;;;;0.00;0.00;;;20.50;48.40;;;;;;4193890;28;20486;-59
2021/03/14 11:46:03;;;;;;;0.00;0.00;;;20.20;49.00;;;;;;4194471;28;20058;-59
2021/03/14 11:48:25;;;;;;;0.20;0.20;;;20.20;50.00;;;;;;4193975;28;20056;-57
2021/03/14 11:50:51;;;;;;;0.90;0.90;;;20.30;49.80;;;;;;4177844;28;20049;-60
2021/03/14 11:53:14;;;;;;;0.00;0.00;;;20.30;49.70;;;;;;4181696;28;20052;-56
2021/03/14 11:55:42;;;;;;;0.47;0.47;;;20.40;49.60;;;;;;4193998;28;20052;-58
2021/03/14 11:58:04;;;;;;;0.00;0.00;;;20.40;49.60;;;;;;4193863;28;20491;-59
2021/03/14 12:00:25;;;;;;;0.00;0.00;;;20.30;49.70;;;;;;4193727;28;20083;-57
2021/03/14 12:02:49;;;;;;;0.17;0.17;;;20.20;49.80;;;;;;4193951;28;20423;-56
2021/03/14 12:05:32;;;;;;;0.00;0.00;;;20.40;49.60;;;;;;4195367;28;20055;-57
2021/03/14 12:08:02;;;;;;;0.00;0.00;;;20.60;49.10;;;;;;4193999;28;20198;-56
2021/03/14 12:10:23;;;;;;;;;;;20.70;48.70;;;;;;4194737;28;20086;-56
2021/03/14 12:12:44;;;;;;;0.00;0.00;;;20.70;48.80;;;;;;4194291;28;19930;-53
2021/03/14 12:15:14;;;;;;;0.00;0.00;;;20.50;49.00;;;;;;4194351;28;20518;-56
2021/03/14 12:17:40;;;;;;;0.00;0.00;;;20.30;49.40;;;;;;4194208;28;20056;-59
2021/03/14 12:20:21;;;;;;;0.00;0.00;;;20.20;49.70;;;;;;4193944;28;20123;-58
2021/03/14 12:23:06;;;;;;;0.00;0.00;;;20.20;50.00;;;;;;4181618;28;20796;-59
2021/03/14 12:25:33;;;;;;;0.00;0.00;;;20.30;49.70;;;;;;4194246;28;20131;-59
2021/03/14 12:27:54;;;;;;;;;;;20.40;49.60;;;;;;4195603;28;20053;-60
2021/03/14 12:30:15;;;;;;;0.00;0.00;;;20.50;49.40;;;;;;4193867;28;20357;-58
2021/03/14 12:32:37;;;;;;;0.05;0.05;;;20.40;49.40;;;;;;4193892;28;20076;-59
2021/03/14 12:35:07;;;;;;;0.03;0.03;;;20.30;49.50;;;;;;4193954;28;20045;-59
2021/03/14 12:37:30;;;;;;;0.00;0.00;;;20.20;49.80;;;;;;4194121;28;20132;-58
2021/03/14 12:39:58;;;;;;;0.10;0.10;;;20.00;50.10;;;;;;4177611;28;20102;-59